createdAt,value
2019-04-07T00:00:01.162Z,1002.49
2019-04-07T00:01:01.169Z,1002.51
2019-04-07T00:02:01.201Z,1002.51
2019-04-07T00:03:01.323Z,1002.51
2019-04-07T00:04:05.337Z,1002.53
2019-04-07T00:05:14.376Z,1002.51
2019-04-07T00:06:01.166Z,1002.49
2019-04-07T00:07:01.382Z,1002.5
2019-04-07T00:08:01.142Z,1002.5
2019-04-07T00:09:01.759Z,1002.5
2019-04-07T00:10:01.859Z,1002.51
2019-04-07T00:11:01.436Z,1002.51
2019-04-07T00:12:01.136Z,1002.5
2019-04-07T00:13:01.262Z,1002.51
2019-04-07T00:14:01.180Z,1002.54
2019-04-07T00:15:01.182Z,1002.54
2019-04-07T00:16:02.086Z,1002.53
2019-04-07T00:17:01.823Z,1002.53
2019-04-07T00:18:01.126Z,1002.55
2019-04-07T00:19:01.695Z,1002.53
2019-04-07T00:20:01.180Z,1002.48
2019-04-07T00:21:01.605Z,1002.47
2019-04-07T00:22:01.141Z,1002.47
2019-04-07T00:23:01.166Z,1002.46
2019-04-07T00:24:02.548Z,1002.49
2019-04-07T00:25:01.813Z,1002.44
2019-04-07T00:26:02.307Z,1002.46
2019-04-07T00:27:01.448Z,1002.45
2019-04-07T00:28:01.140Z,1002.49
2019-04-07T00:29:01.762Z,1002.43
2019-04-07T00:30:02.151Z,1002.47
2019-04-07T00:31:01.127Z,1002.51
2019-04-07T00:32:01.169Z,1002.49
2019-04-07T00:33:01.114Z,1002.47
2019-04-07T00:34:01.692Z,1002.48
2019-04-07T00:35:01.138Z,1002.47
2019-04-07T00:36:01.130Z,1002.46
2019-04-07T00:37:01.196Z,1002.48
2019-04-07T00:38:02.213Z,1002.49
2019-04-07T00:39:01.626Z,1002.46
2019-04-07T00:40:01.155Z,1002.48
2019-04-07T00:41:01.457Z,1002.5
2019-04-07T00:42:01.885Z,1002.49
2019-04-07T00:43:01.106Z,1002.45
2019-04-07T00:44:01.661Z,1002.47
2019-04-07T00:45:01.143Z,1002.46
2019-04-07T00:46:01.416Z,1002.48
2019-04-07T00:47:01.096Z,1002.5
2019-04-07T00:48:01.446Z,1002.46
2019-04-07T00:49:02.136Z,1002.47
2019-04-07T00:50:01.531Z,1002.46
2019-04-07T00:51:01.510Z,1002.43
2019-04-07T00:52:01.304Z,1002.44
2019-04-07T00:53:01.339Z,1002.46
2019-04-07T00:54:01.078Z,1002.46
2019-04-07T00:55:02.228Z,1002.46
2019-04-07T00:56:01.355Z,1002.47
2019-04-07T00:57:01.109Z,1002.48
2019-04-07T00:58:01.153Z,1002.46
2019-04-07T00:59:02.892Z,1002.49
2019-04-07T01:00:01.771Z,1002.49
2019-04-07T01:01:01.087Z,1002.48
2019-04-07T01:02:01.513Z,1002.49
2019-04-07T01:03:01.742Z,1002.53
2019-04-07T01:04:01.201Z,1002.52
2019-04-07T01:05:01.835Z,1002.51
2019-04-07T01:06:01.252Z,1002.51
2019-04-07T01:07:01.078Z,1002.49
2019-04-07T01:08:01.819Z,1002.53
2019-04-07T01:09:01.774Z,1002.52
2019-04-07T01:10:01.835Z,1002.52
2019-04-07T01:11:01.406Z,1002.52
2019-04-07T01:12:01.189Z,1002.55
2019-04-07T01:13:01.121Z,1002.53
2019-04-07T01:14:01.653Z,1002.59
2019-04-07T01:15:01.097Z,1002.58
2019-04-07T01:16:01.444Z,1002.56
2019-04-07T01:17:01.065Z,1002.59
2019-04-07T01:18:01.197Z,1002.58
2019-04-07T01:19:01.046Z,1002.59
2019-04-07T01:20:01.108Z,1002.6
2019-04-07T01:21:02.244Z,1002.61
2019-04-07T01:22:01.204Z,1002.62
2019-04-07T01:23:02.947Z,1002.64
2019-04-07T01:24:01.097Z,1002.63
2019-04-07T01:25:01.142Z,1002.63
2019-04-07T01:26:01.088Z,1002.64
2019-04-07T01:27:01.043Z,1002.63
2019-04-07T01:28:01.047Z,1002.63
2019-04-07T01:29:01.549Z,1002.65
2019-04-07T01:30:01.031Z,1002.67
2019-04-07T01:31:01.050Z,1002.65
2019-04-07T01:32:01.043Z,1002.64
2019-04-07T01:33:01.060Z,1002.64
2019-04-07T01:34:01.101Z,1002.67
2019-04-07T01:35:01.386Z,1002.68
2019-04-07T01:36:01.055Z,1002.64
2019-04-07T01:37:01.100Z,1002.68
2019-04-07T01:38:01.620Z,1002.7
2019-04-07T01:39:01.619Z,1002.7
2019-04-07T01:40:02.293Z,1002.72
2019-04-07T01:41:01.054Z,1002.73
2019-04-07T01:42:01.740Z,1002.73
2019-04-07T01:43:01.146Z,1002.71
2019-04-07T01:44:01.078Z,1002.75
2019-04-07T01:45:01.663Z,1002.74
2019-04-07T01:46:01.253Z,1002.72
2019-04-07T01:47:01.430Z,1002.74
2019-04-07T01:48:01.136Z,1002.72
2019-04-07T01:49:01.135Z,1002.71
2019-04-07T01:50:01.024Z,1002.73
2019-04-07T01:51:01.525Z,1002.75
2019-04-07T01:52:01.076Z,1002.76
2019-04-07T01:53:01.051Z,1002.76
2019-04-07T01:54:01.006Z,1002.77
2019-04-07T01:55:01.049Z,1002.75
2019-04-07T01:56:01.631Z,1002.77
2019-04-07T01:57:01.451Z,1002.73
2019-04-07T01:58:01.019Z,1002.74
2019-04-07T01:59:01.653Z,1002.77
2019-04-07T02:00:01.054Z,1002.78
2019-04-07T02:01:01.027Z,1002.75
2019-04-07T02:02:02.044Z,1002.78
2019-04-07T02:03:01.081Z,1002.74
2019-04-07T02:04:01.802Z,1002.79
2019-04-07T02:05:01.013Z,1002.75
2019-04-07T02:06:05.683Z,1002.74
2019-04-07T02:07:01.023Z,1002.76
2019-04-07T02:08:01.401Z,1002.75
2019-04-07T02:09:01.906Z,1002.78
2019-04-07T02:10:01.011Z,1002.77
2019-04-07T02:11:01.405Z,1002.78
2019-04-07T02:12:01.821Z,1002.78
2019-04-07T02:13:01.203Z,1002.8
2019-04-07T02:14:01.053Z,1002.79
2019-04-07T02:15:01.052Z,1002.79
2019-04-07T02:16:00.963Z,1002.77
2019-04-07T02:17:00.992Z,1002.78
2019-04-07T02:18:00.985Z,1002.77
2019-04-07T02:19:01.008Z,1002.78
2019-04-07T02:20:01.395Z,1002.8
2019-04-07T02:21:00.946Z,1002.81
2019-04-07T02:22:00.974Z,1002.78
2019-04-07T02:23:00.959Z,1002.81
2019-04-07T02:24:03.617Z,1002.8
2019-04-07T02:25:01.015Z,1002.8
2019-04-07T02:26:00.983Z,1002.8
2019-04-07T02:27:00.994Z,1002.79
2019-04-07T02:28:01.161Z,1002.8
2019-04-07T02:29:01.643Z,1002.84
2019-04-07T02:30:00.943Z,1002.81
2019-04-07T02:31:01.074Z,1002.8
2019-04-07T02:32:01.572Z,1002.83
2019-04-07T02:33:02.221Z,1002.84
2019-04-07T02:34:00.975Z,1002.83
2019-04-07T02:35:01.806Z,1002.86
2019-04-07T02:36:23.675Z,1002.88
2019-04-07T02:37:00.991Z,1002.85
2019-04-07T02:38:02.328Z,1002.85
2019-04-07T02:39:01.159Z,1002.85
2019-04-07T02:40:00.933Z,1002.85
2019-04-07T02:41:01.882Z,1002.86
2019-04-07T02:42:00.962Z,1002.86
2019-04-07T02:43:02.820Z,1002.85
2019-04-07T02:44:02.664Z,1002.86
2019-04-07T02:45:01.549Z,1002.85
2019-04-07T02:46:00.967Z,1002.85
2019-04-07T02:47:00.983Z,1002.88
2019-04-07T02:48:01.444Z,1002.86
2019-04-07T02:49:01.942Z,1002.89
2019-04-07T02:50:02.207Z,1002.93
2019-04-07T02:51:01.382Z,1002.95
2019-04-07T02:52:00.960Z,1002.93
2019-04-07T02:53:01.921Z,1002.9
2019-04-07T02:54:00.932Z,1002.93
2019-04-07T02:55:02.351Z,1002.94
2019-04-07T02:56:02.237Z,1002.94
2019-04-07T02:57:00.916Z,1002.99
2019-04-07T02:58:02.819Z,1003.02
2019-04-07T02:59:01.483Z,1002.99
2019-04-07T03:00:01.270Z,1003
2019-04-07T03:01:02.164Z,1003.02
2019-04-07T03:02:01.191Z,1003.02
2019-04-07T03:03:01.782Z,1003.04
2019-04-07T03:04:05.113Z,1003.07
2019-04-07T03:05:02.326Z,1003.04
2019-04-07T03:06:02.130Z,1003.07
2019-04-07T03:07:00.943Z,1003.03
2019-04-07T03:08:01.746Z,1003.05
2019-04-07T03:09:00.907Z,1003.01
2019-04-07T03:10:00.995Z,1003.02
2019-04-07T03:11:02.148Z,1003.06
2019-04-07T03:12:02.874Z,1003.03
2019-04-07T03:13:01.179Z,1003.02
2019-04-07T03:14:00.925Z,1003
2019-04-07T03:15:00.921Z,1003
2019-04-07T03:16:02.123Z,1003.01
2019-04-07T03:17:00.910Z,1003.03
2019-04-07T03:18:00.979Z,1003.06
2019-04-07T03:19:00.912Z,1003.06
2019-04-07T03:20:00.912Z,1003.08
2019-04-07T03:21:01.273Z,1003.1
2019-04-07T03:22:01.223Z,1003.14
2019-04-07T03:23:00.905Z,1003.14
2019-04-07T03:24:00.892Z,1003.15
2019-04-07T03:25:00.895Z,1003.15
2019-04-07T03:26:02.024Z,1003.16
2019-04-07T03:27:01.023Z,1003.13
2019-04-07T03:28:01.284Z,1003.16
2019-04-07T03:29:01.451Z,1003.21
2019-04-07T03:30:01.483Z,1003.17
2019-04-07T03:31:03.993Z,1003.2
2019-04-07T03:32:03.562Z,1003.22
2019-04-07T03:33:06.533Z,1003.2
2019-04-07T03:34:06.051Z,1003.22
2019-04-07T03:35:04.916Z,1003.22
2019-04-07T03:36:05.842Z,1003.2
2019-04-07T03:37:33.036Z,1003.21
2019-04-07T03:38:01.946Z,1003.22
2019-04-07T03:39:01.967Z,1003.22
2019-04-07T03:40:02.724Z,1003.2
2019-04-07T03:41:00.880Z,1003.22
2019-04-07T03:42:01.222Z,1003.26
2019-04-07T03:43:01.735Z,1003.23
2019-04-07T03:44:01.470Z,1003.25
2019-04-07T03:45:01.251Z,1003.28
2019-04-07T03:46:01.088Z,1003.27
2019-04-07T03:47:01.593Z,1003.27
2019-04-07T03:48:02.340Z,1003.27
2019-04-07T03:49:02.085Z,1003.28
2019-04-07T03:50:02.964Z,1003.25
2019-04-07T03:51:01.684Z,1003.27
2019-04-07T03:52:02.401Z,1003.27
2019-04-07T03:53:02.814Z,1003.29
2019-04-07T03:54:00.881Z,1003.23
2019-04-07T03:55:01.500Z,1003.24
2019-04-07T03:56:01.921Z,1003.23
2019-04-07T03:57:00.932Z,1003.23
2019-04-07T03:58:01.754Z,1003.22
2019-04-07T03:59:00.848Z,1003.21
2019-04-07T04:00:02.450Z,1003.24
2019-04-07T04:01:00.884Z,1003.25
2019-04-07T04:02:00.997Z,1003.27
2019-04-07T04:03:00.838Z,1003.26
2019-04-07T04:04:02.350Z,1003.23
2019-04-07T04:05:01.018Z,1003.29
2019-04-07T04:06:00.831Z,1003.26
2019-04-07T04:07:25.351Z,1003.22
2019-04-07T04:08:00.996Z,1003.26
2019-04-07T04:09:02.237Z,1003.25
2019-04-07T04:10:01.315Z,1003.27
2019-04-07T04:11:00.891Z,1003.28
2019-04-07T04:12:01.462Z,1003.29
2019-04-07T04:13:01.117Z,1003.3
2019-04-07T04:14:01.994Z,1003.31
2019-04-07T04:15:02.032Z,1003.28
2019-04-07T04:16:01.133Z,1003.3
2019-04-07T04:17:02.226Z,1003.34
2019-04-07T04:18:01.298Z,1003.35
2019-04-07T04:19:00.816Z,1003.34
2019-04-07T04:20:00.829Z,1003.35
2019-04-07T04:21:01.576Z,1003.35
2019-04-07T04:22:02.183Z,1003.37
2019-04-07T04:23:00.874Z,1003.36
2019-04-07T04:24:00.863Z,1003.36
2019-04-07T04:25:01.273Z,1003.38
2019-04-07T04:26:01.095Z,1003.36
2019-04-07T04:27:01.095Z,1003.37
2019-04-07T04:28:01.477Z,1003.37
2019-04-07T04:29:03.104Z,1003.43
2019-04-07T04:30:01.044Z,1003.44
2019-04-07T04:31:00.907Z,1003.48
2019-04-07T04:32:01.751Z,1003.46
2019-04-07T04:33:02.334Z,1003.5
2019-04-07T04:34:01.896Z,1003.47
2019-04-07T04:35:01.119Z,1003.48
2019-04-07T04:36:00.795Z,1003.48
2019-04-07T04:37:01.911Z,1003.45
2019-04-07T04:38:02.021Z,1003.45
2019-04-07T04:39:00.898Z,1003.47
2019-04-07T04:40:03.874Z,1003.49
2019-04-07T04:41:01.740Z,1003.47
2019-04-07T04:42:01.028Z,1003.47
2019-04-07T04:43:01.841Z,1003.48
2019-04-07T04:44:00.792Z,1003.49
2019-04-07T04:45:02.667Z,1003.47
2019-04-07T04:46:01.456Z,1003.46
2019-04-07T04:47:02.792Z,1003.48
2019-04-07T04:48:00.781Z,1003.48
2019-04-07T04:49:00.783Z,1003.47
2019-04-07T04:50:02.521Z,1003.5
2019-04-07T04:51:00.827Z,1003.55
2019-04-07T04:52:00.895Z,1003.61
2019-04-07T04:53:00.745Z,1003.56
2019-04-07T04:54:01.977Z,1003.56
2019-04-07T04:55:02.208Z,1003.62
2019-04-07T04:56:01.192Z,1003.62
2019-04-07T04:57:06.682Z,1003.64
2019-04-07T04:58:00.789Z,1003.64
2019-04-07T04:59:00.980Z,1003.68
2019-04-07T05:00:02.229Z,1003.68
2019-04-07T05:01:02.228Z,1003.71
2019-04-07T05:02:01.240Z,1003.7
2019-04-07T05:03:01.119Z,1003.72
2019-04-07T05:04:00.745Z,1003.72
2019-04-07T05:05:02.741Z,1003.75
2019-04-07T05:06:02.457Z,1003.72
2019-04-07T05:07:01.574Z,1003.79
2019-04-07T05:08:05.778Z,1003.77
2019-04-07T05:09:01.485Z,1003.81
2019-04-07T05:10:01.579Z,1003.83
2019-04-07T05:11:01.834Z,1003.85
2019-04-07T05:12:00.808Z,1003.87
2019-04-07T05:13:00.739Z,1003.92
2019-04-07T05:14:00.924Z,1003.91
2019-04-07T05:15:01.830Z,1003.95
2019-04-07T05:16:01.208Z,1003.93
2019-04-07T05:17:01.236Z,1003.95
2019-04-07T05:18:01.763Z,1003.94
2019-04-07T05:19:00.811Z,1003.92
2019-04-07T05:20:01.250Z,1003.93
2019-04-07T05:21:00.793Z,1003.92
2019-04-07T05:22:01.501Z,1003.93
2019-04-07T05:23:01.063Z,1003.96
2019-04-07T05:24:01.484Z,1003.96
2019-04-07T05:25:00.999Z,1004
2019-04-07T05:26:00.788Z,1003.95
2019-04-07T05:27:01.090Z,1003.97
2019-04-07T05:28:01.302Z,1003.99
2019-04-07T05:29:01.342Z,1003.99
2019-04-07T05:30:01.321Z,1004.02
2019-04-07T05:31:00.723Z,1004.03
2019-04-07T05:32:01.799Z,1004.03
2019-04-07T05:33:01.025Z,1004.05
2019-04-07T05:34:00.840Z,1004.03
2019-04-07T05:35:01.148Z,1004.05
2019-04-07T05:36:00.725Z,1004.06
2019-04-07T05:37:02.295Z,1004.04
2019-04-07T05:38:06.488Z,1004.04
2019-04-07T05:39:01.072Z,1004.05
2019-04-07T05:40:03.950Z,1004.05
2019-04-07T05:41:00.727Z,1004.07
2019-04-07T05:42:01.400Z,1004.09
2019-04-07T05:43:02.059Z,1004.11
2019-04-07T05:44:01.412Z,1004.14
2019-04-07T05:45:00.824Z,1004.13
2019-04-07T05:46:00.898Z,1004.16
2019-04-07T05:47:00.793Z,1004.2
2019-04-07T05:48:00.746Z,1004.18
2019-04-07T05:49:00.867Z,1004.21
2019-04-07T05:50:05.181Z,1004.19
2019-04-07T05:51:01.250Z,1004.23
2019-04-07T05:52:05.797Z,1004.23
2019-04-07T05:53:00.673Z,1004.26
2019-04-07T05:54:01.377Z,1004.23
2019-04-07T05:55:01.401Z,1004.26
2019-04-07T05:56:01.182Z,1004.27
2019-04-07T05:57:02.549Z,1004.29
2019-04-07T05:58:07.006Z,1004.31
2019-04-07T05:59:01.921Z,1004.33
2019-04-07T06:00:01.418Z,1004.37
2019-04-07T06:01:00.673Z,1004.37
2019-04-07T06:02:03.643Z,1004.4
2019-04-07T06:03:08.192Z,1004.38
2019-04-07T06:04:01.615Z,1004.38
2019-04-07T06:05:01.344Z,1004.4
2019-04-07T06:06:00.782Z,1004.38
2019-04-07T06:07:00.759Z,1004.39
2019-04-07T06:08:27.595Z,1004.39
2019-04-07T06:09:00.742Z,1004.39
2019-04-07T06:10:01.174Z,1004.39
2019-04-07T06:11:02.525Z,1004.38
2019-04-07T06:12:06.273Z,1004.41
2019-04-07T06:13:00.669Z,1004.39
2019-04-07T06:14:00.948Z,1004.42
2019-04-07T06:15:00.690Z,1004.44
2019-04-07T06:16:00.688Z,1004.43
2019-04-07T06:17:01.016Z,1004.41
2019-04-07T06:18:02.482Z,1004.4
2019-04-07T06:19:07.375Z,1004.42
2019-04-07T06:20:01.549Z,1004.42
2019-04-07T06:21:01.066Z,1004.43
2019-04-07T06:22:01.459Z,1004.4
2019-04-07T06:23:00.644Z,1004.45
2019-04-07T06:24:00.861Z,1004.45
2019-04-07T06:25:04.086Z,1004.43
2019-04-07T06:26:00.687Z,1004.45
2019-04-07T06:27:00.931Z,1004.43
2019-04-07T06:28:00.623Z,1004.45
2019-04-07T06:29:00.705Z,1004.41
2019-04-07T06:30:01.024Z,1004.39
2019-04-07T06:31:02.087Z,1004.41
2019-04-07T06:32:05.535Z,1004.41
2019-04-07T06:33:01.584Z,1004.38
2019-04-07T06:34:00.671Z,1004.41
2019-04-07T06:35:00.803Z,1004.41
2019-04-07T06:36:00.631Z,1004.38
2019-04-07T06:37:00.693Z,1004.37
2019-04-07T06:38:07.651Z,1004.41
2019-04-07T06:39:01.533Z,1004.39
2019-04-07T06:40:01.288Z,1004.4
2019-04-07T06:41:03.019Z,1004.4
2019-04-07T06:42:02.800Z,1004.4
2019-04-07T06:43:06.075Z,1004.39
2019-04-07T06:44:13.722Z,1004.41
2019-04-07T06:45:01.780Z,1004.43
2019-04-07T06:46:00.587Z,1004.41
2019-04-07T06:47:04.449Z,1004.44
2019-04-07T06:48:08.119Z,1004.45
2019-04-07T06:49:00.651Z,1004.45
2019-04-07T06:50:00.761Z,1004.44
2019-04-07T06:51:01.866Z,1004.47
2019-04-07T06:52:04.626Z,1004.46
2019-04-07T06:53:00.684Z,1004.48
2019-04-07T06:54:02.391Z,1004.46
2019-04-07T06:55:00.608Z,1004.5
2019-04-07T06:56:04.912Z,1004.47
2019-04-07T06:57:06.293Z,1004.5
2019-04-07T06:58:02.149Z,1004.52
2019-04-07T06:59:00.763Z,1004.52
2019-04-07T07:00:01.123Z,1004.5
2019-04-07T07:01:03.444Z,1004.47
2019-04-07T07:02:00.758Z,1004.48
2019-04-07T07:03:04.315Z,1004.48
2019-04-07T07:04:00.963Z,1004.47
2019-04-07T07:05:00.591Z,1004.46
2019-04-07T07:06:01.378Z,1004.53
2019-04-07T07:07:01.044Z,1004.53
2019-04-07T07:08:00.949Z,1004.55
2019-04-07T07:09:00.954Z,1004.56
2019-04-07T07:10:03.212Z,1004.55
2019-04-07T07:11:01.069Z,1004.57
2019-04-07T07:12:01.612Z,1004.59
2019-04-07T07:13:10.959Z,1004.59
2019-04-07T07:14:00.610Z,1004.6
2019-04-07T07:15:03.595Z,1004.63
2019-04-07T07:16:01.437Z,1004.66
2019-04-07T07:17:00.574Z,1004.66
2019-04-07T07:18:00.585Z,1004.64
2019-04-07T07:19:02.506Z,1004.6
2019-04-07T07:20:05.395Z,1004.58
2019-04-07T07:21:03.692Z,1004.59
2019-04-07T07:22:01.351Z,1004.57
2019-04-07T07:23:00.826Z,1004.57
2019-04-07T07:24:01.366Z,1004.56
2019-04-07T07:25:01.470Z,1004.53
2019-04-07T07:26:03.463Z,1004.57
2019-04-07T07:27:08.253Z,1004.54
2019-04-07T07:28:01.718Z,1004.57
2019-04-07T07:29:00.985Z,1004.58
2019-04-07T07:30:01.316Z,1004.6
2019-04-07T07:31:00.997Z,1004.58
2019-04-07T07:32:04.840Z,1004.59
2019-04-07T07:33:00.772Z,1004.58
2019-04-07T07:34:00.616Z,1004.6
2019-04-07T07:35:00.579Z,1004.57
2019-04-07T07:36:01.357Z,1004.59
2019-04-07T07:37:00.599Z,1004.64
2019-04-07T07:38:00.538Z,1004.6
2019-04-07T07:39:08.493Z,1004.61
2019-04-07T07:40:01.870Z,1004.61
2019-04-07T07:41:03.678Z,1004.63
2019-04-07T07:42:00.515Z,1004.6
2019-04-07T07:43:00.599Z,1004.6
2019-04-07T07:44:05.424Z,1004.63
2019-04-07T07:45:00.605Z,1004.6
2019-04-07T07:46:00.528Z,1004.57
2019-04-07T07:47:00.611Z,1004.59
2019-04-07T07:48:01.049Z,1004.58
2019-04-07T07:49:02.205Z,1004.59
2019-04-07T07:50:06.829Z,1004.6
2019-04-07T07:51:01.338Z,1004.6
2019-04-07T07:52:00.533Z,1004.61
2019-04-07T07:53:01.465Z,1004.61
2019-04-07T07:54:02.162Z,1004.61
2019-04-07T07:55:03.631Z,1004.58
2019-04-07T07:56:01.066Z,1004.63
2019-04-07T07:57:01.480Z,1004.64
2019-04-07T07:58:01.180Z,1004.63
2019-04-07T07:59:02.575Z,1004.6
2019-04-07T08:00:07.005Z,1004.65
2019-04-07T08:01:01.519Z,1004.58
2019-04-07T08:02:01.412Z,1004.55
2019-04-07T08:03:00.582Z,1004.59
2019-04-07T08:04:00.875Z,1004.59
2019-04-07T08:05:00.725Z,1004.59
2019-04-07T08:06:08.172Z,1004.59
2019-04-07T08:07:02.747Z,1004.58
2019-04-07T08:08:01.737Z,1004.55
2019-04-07T08:09:14.822Z,1004.54
2019-04-07T08:10:01.884Z,1004.56
2019-04-07T08:11:02.743Z,1004.59
2019-04-07T08:12:03.512Z,1004.56
2019-04-07T08:13:07.541Z,1004.55
2019-04-07T08:14:01.292Z,1004.61
2019-04-07T08:15:00.519Z,1004.55
2019-04-07T08:16:00.571Z,1004.56
2019-04-07T08:17:03.920Z,1004.57
2019-04-07T08:18:07.501Z,1004.6
2019-04-07T08:19:01.568Z,1004.59
2019-04-07T08:20:01.225Z,1004.59
2019-04-07T08:21:00.485Z,1004.56
2019-04-07T08:22:00.759Z,1004.62
2019-04-07T08:23:00.771Z,1004.62
2019-04-07T08:24:01.484Z,1004.61
2019-04-07T08:25:01.158Z,1004.6
2019-04-07T08:26:00.559Z,1004.62
2019-04-07T08:27:00.480Z,1004.59
2019-04-07T08:28:04.725Z,1004.59
2019-04-07T08:29:07.694Z,1004.63
2019-04-07T08:30:02.969Z,1004.55
2019-04-07T08:31:00.897Z,1004.57
2019-04-07T08:32:00.745Z,1004.58
2019-04-07T08:33:03.383Z,1004.57
2019-04-07T08:34:02.314Z,1004.53
2019-04-07T08:35:05.516Z,1004.57
2019-04-07T08:36:00.646Z,1004.58
2019-04-07T08:37:01.403Z,1004.57
2019-04-07T08:38:01.130Z,1004.53
2019-04-07T08:39:00.730Z,1004.61
2019-04-07T08:40:07.198Z,1004.58
2019-04-07T08:41:04.140Z,1004.54
2019-04-07T08:42:01.395Z,1004.61
2019-04-07T08:43:01.234Z,1004.57
2019-04-07T08:44:00.515Z,1004.56
2019-04-07T08:45:01.615Z,1004.61
2019-04-07T08:46:04.967Z,1004.54
2019-04-07T08:47:01.458Z,1004.58
2019-04-07T08:48:00.872Z,1004.59
2019-04-07T08:49:00.498Z,1004.55
2019-04-07T08:50:00.451Z,1004.58
2019-04-07T08:51:01.169Z,1004.54
2019-04-07T08:52:08.986Z,1004.56
2019-04-07T08:53:00.430Z,1004.54
2019-04-07T08:54:00.480Z,1004.51
2019-04-07T08:55:00.465Z,1004.53
2019-04-07T08:56:00.506Z,1004.53
2019-04-07T08:57:00.595Z,1004.52
2019-04-07T08:58:05.335Z,1004.53
2019-04-07T08:59:00.421Z,1004.52
2019-04-07T09:00:00.541Z,1004.54
2019-04-07T09:01:00.441Z,1004.5
2019-04-07T09:02:00.485Z,1004.54
2019-04-07T09:03:11.290Z,1004.5
2019-04-07T09:04:01.316Z,1004.51
2019-04-07T09:05:01.428Z,1004.52
2019-04-07T09:06:01.131Z,1004.52
2019-04-07T09:07:04.073Z,1004.55
2019-04-07T09:08:05.993Z,1004.56
2019-04-07T09:09:00.560Z,1004.57
2019-04-07T09:10:01.156Z,1004.54
2019-04-07T09:11:00.527Z,1004.54
2019-04-07T09:12:01.559Z,1004.55
2019-04-07T09:13:06.027Z,1004.53
2019-04-07T09:14:00.437Z,1004.54
2019-04-07T09:15:05.186Z,1004.57
2019-04-07T09:16:00.381Z,1004.55
2019-04-07T09:17:00.458Z,1004.54
2019-04-07T09:18:01.006Z,1004.59
2019-04-07T09:19:06.999Z,1004.57
2019-04-07T09:20:00.916Z,1004.56
2019-04-07T09:21:00.921Z,1004.6
2019-04-07T09:22:00.726Z,1004.56
2019-04-07T09:23:00.624Z,1004.58
2019-04-07T09:24:00.410Z,1004.61
2019-04-07T09:25:08.406Z,1004.6
2019-04-07T09:26:00.393Z,1004.61
2019-04-07T09:27:01.197Z,1004.62
2019-04-07T09:28:01.069Z,1004.63
2019-04-07T09:29:00.873Z,1004.64
2019-04-07T09:30:02.254Z,1004.64
2019-04-07T09:31:04.577Z,1004.63
2019-04-07T09:32:00.423Z,1004.62
2019-04-07T09:33:01.392Z,1004.61
2019-04-07T09:34:00.455Z,1004.65
2019-04-07T09:35:00.723Z,1004.62
2019-04-07T09:36:00.749Z,1004.63
2019-04-07T09:37:00.517Z,1004.61
2019-04-07T09:38:00.513Z,1004.66
2019-04-07T09:39:03.890Z,1004.68
2019-04-07T09:40:04.509Z,1004.7
2019-04-07T09:41:00.649Z,1004.69
2019-04-07T09:42:01.009Z,1004.66
2019-04-07T09:43:01.403Z,1004.65
2019-04-07T09:44:03.062Z,1004.64
2019-04-07T09:45:00.527Z,1004.65
2019-04-07T09:46:00.391Z,1004.66
2019-04-07T09:47:00.890Z,1004.67
2019-04-07T09:48:00.689Z,1004.7
2019-04-07T09:49:02.038Z,1004.7
2019-04-07T09:50:01.550Z,1004.7
2019-04-07T09:51:07.257Z,1004.73
2019-04-07T09:52:01.138Z,1004.69
2019-04-07T09:53:01.276Z,1004.69
2019-04-07T09:54:00.410Z,1004.67
2019-04-07T09:55:01.299Z,1004.67
2019-04-07T09:56:02.802Z,1004.66
2019-04-07T09:57:05.982Z,1004.69
2019-04-07T09:58:01.390Z,1004.68
2019-04-07T09:59:00.382Z,1004.63
2019-04-07T10:00:00.545Z,1004.65
2019-04-07T10:01:00.374Z,1004.62
2019-04-07T10:02:02.690Z,1004.66
2019-04-07T10:03:07.823Z,1004.66
2019-04-07T10:04:00.347Z,1004.62
2019-04-07T10:05:00.367Z,1004.59
2019-04-07T10:06:00.862Z,1004.6
2019-04-07T10:07:03.721Z,1004.62
2019-04-07T10:08:00.445Z,1004.63
2019-04-07T10:09:01.115Z,1004.66
2019-04-07T10:10:13.725Z,1004.61
2019-04-07T10:11:00.758Z,1004.62
2019-04-07T10:12:00.459Z,1004.64
2019-04-07T10:13:00.736Z,1004.62
2019-04-07T10:14:01.262Z,1004.61
2019-04-07T10:15:00.363Z,1004.64
2019-04-07T10:16:01.062Z,1004.63
2019-04-07T10:17:01.214Z,1004.65
2019-04-07T10:18:00.578Z,1004.68
2019-04-07T10:19:00.784Z,1004.67
2019-04-07T10:20:01.009Z,1004.64
2019-04-07T10:21:01.601Z,1004.66
2019-04-07T10:22:03.274Z,1004.67
2019-04-07T10:23:00.790Z,1004.63
2019-04-07T10:24:00.844Z,1004.68
2019-04-07T10:25:00.430Z,1004.71
2019-04-07T10:26:01.246Z,1004.69
2019-04-07T10:27:00.535Z,1004.69
2019-04-07T10:28:00.668Z,1004.7
2019-04-07T10:29:00.657Z,1004.65
2019-04-07T10:30:00.576Z,1004.67
2019-04-07T10:31:00.300Z,1004.68
2019-04-07T10:32:00.460Z,1004.68
2019-04-07T10:33:00.334Z,1004.67
2019-04-07T10:34:00.340Z,1004.66
2019-04-07T10:35:01.154Z,1004.71
2019-04-07T10:36:00.334Z,1004.64
2019-04-07T10:37:04.972Z,1004.63
2019-04-07T10:38:01.760Z,1004.61
2019-04-07T10:39:00.882Z,1004.62
2019-04-07T10:40:03.057Z,1004.63
2019-04-07T10:41:01.085Z,1004.6
2019-04-07T10:42:00.338Z,1004.6
2019-04-07T10:43:01.441Z,1004.59
2019-04-07T10:44:01.697Z,1004.59
2019-04-07T10:45:00.634Z,1004.63
2019-04-07T10:46:00.389Z,1004.61
2019-04-07T10:47:00.480Z,1004.62
2019-04-07T10:48:01.305Z,1004.62
2019-04-07T10:49:00.372Z,1004.58
2019-04-07T10:50:07.465Z,1004.62
2019-04-07T10:51:00.325Z,1004.66
2019-04-07T10:52:00.291Z,1004.6
2019-04-07T10:53:00.395Z,1004.62
2019-04-07T10:54:00.322Z,1004.68
2019-04-07T10:55:01.188Z,1004.67
2019-04-07T10:56:01.184Z,1004.71
2019-04-07T10:57:01.075Z,1004.65
2019-04-07T10:58:00.286Z,1004.62
2019-04-07T10:59:00.320Z,1004.71
2019-04-07T11:00:01.425Z,1004.65
2019-04-07T11:01:00.997Z,1004.68
2019-04-07T11:02:00.378Z,1004.69
2019-04-07T11:03:00.929Z,1004.73
2019-04-07T11:04:00.309Z,1004.72
2019-04-07T11:05:00.701Z,1004.7
2019-04-07T11:06:00.469Z,1004.69
2019-04-07T11:07:00.296Z,1004.68
2019-04-07T11:08:00.510Z,1004.69
2019-04-07T11:09:00.300Z,1004.7
2019-04-07T11:10:01.291Z,1004.71
2019-04-07T11:11:00.280Z,1004.66
2019-04-07T11:12:00.255Z,1004.69
2019-04-07T11:13:00.772Z,1004.73
2019-04-07T11:14:01.014Z,1004.67
2019-04-07T11:15:01.049Z,1004.72
2019-04-07T11:16:00.425Z,1004.66
2019-04-07T11:17:02.419Z,1004.68
2019-04-07T11:18:01.768Z,1004.67
2019-04-07T11:19:00.292Z,1004.71
2019-04-07T11:20:00.288Z,1004.67
2019-04-07T11:21:02.279Z,1004.68
2019-04-07T11:22:01.025Z,1004.67
2019-04-07T11:23:01.203Z,1004.68
2019-04-07T11:24:01.298Z,1004.65
2019-04-07T11:25:01.163Z,1004.65
2019-04-07T11:26:00.667Z,1004.63
2019-04-07T11:27:00.293Z,1004.62
2019-04-07T11:28:00.245Z,1004.65
2019-04-07T11:29:00.253Z,1004.62
2019-04-07T11:30:00.421Z,1004.63
2019-04-07T11:31:00.546Z,1004.64
2019-04-07T11:32:00.447Z,1004.61
2019-04-07T11:33:01.627Z,1004.65
2019-04-07T11:34:00.907Z,1004.58
2019-04-07T11:35:00.261Z,1004.62
2019-04-07T11:36:03.996Z,1004.57
2019-04-07T11:37:00.654Z,1004.59
2019-04-07T11:38:00.419Z,1004.57
2019-04-07T11:39:00.613Z,1004.58
2019-04-07T11:40:00.990Z,1004.62
2019-04-07T11:41:00.283Z,1004.57
2019-04-07T11:42:01.140Z,1004.59
2019-04-07T11:43:00.593Z,1004.57
2019-04-07T11:44:00.812Z,1004.58
2019-04-07T11:45:00.286Z,1004.58
2019-04-07T11:46:03.463Z,1004.6
2019-04-07T11:47:00.594Z,1004.6
2019-04-07T11:48:00.242Z,1004.55
2019-04-07T11:49:00.919Z,1004.58
2019-04-07T11:50:00.383Z,1004.62
2019-04-07T11:51:00.214Z,1004.56
2019-04-07T11:52:00.257Z,1004.58
2019-04-07T11:53:00.653Z,1004.56
2019-04-07T11:54:01.689Z,1004.59
2019-04-07T11:55:01.007Z,1004.57
2019-04-07T11:56:07.472Z,1004.54
2019-04-07T11:57:00.956Z,1004.57
2019-04-07T11:58:15.416Z,1004.57
2019-04-07T11:59:01.212Z,1004.57
2019-04-07T12:00:01.223Z,1004.58
2019-04-07T12:01:00.268Z,1004.58
2019-04-07T12:02:01.821Z,1004.56
2019-04-07T12:03:00.901Z,1004.59
2019-04-07T12:04:02.256Z,1004.59
2019-04-07T12:05:00.325Z,1004.6
2019-04-07T12:06:01.409Z,1004.62
2019-04-07T12:07:00.284Z,1004.58
2019-04-07T12:08:01.484Z,1004.56